createdAt,value
2018-07-28T00:00:23.876Z,78.83
2018-07-28T00:02:54.665Z,78.68
2018-07-28T00:05:25.643Z,78.98
2018-07-28T00:07:56.648Z,78.57
2018-07-28T00:10:27.746Z,78.70
2018-07-28T00:12:58.680Z,78.18
2018-07-28T00:15:29.613Z,78.34
2018-07-28T00:18:00.565Z,78.65
2018-07-28T00:20:31.596Z,78.56
2018-07-28T00:23:02.870Z,78.87
2018-07-28T00:25:38.691Z,79.04
2018-07-28T00:28:09.001Z,78.94
2018-07-28T00:30:38.924Z,78.71
2018-07-28T00:33:08.780Z,79.07
2018-07-28T00:35:38.748Z,79.85
2018-07-28T00:38:08.634Z,80.13
2018-07-28T00:40:39.636Z,80.20
2018-07-28T00:43:10.616Z,79.87
2018-07-28T00:45:43.002Z,80.07
2018-07-28T00:48:12.834Z,80.09
2018-07-28T00:50:44.040Z,80.19
2018-07-28T00:53:14.830Z,79.83
2018-07-28T00:55:48.643Z,80.16
2018-07-28T00:58:18.541Z,80.05
2018-07-28T01:00:48.593Z,79.80
2018-07-28T01:03:18.486Z,79.83
2018-07-28T01:05:49.865Z,79.93
2018-07-28T01:08:20.673Z,79.54
2018-07-28T01:10:51.676Z,79.28
2018-07-28T01:13:22.526Z,79.68
2018-07-28T01:15:55.030Z,79.75
2018-07-28T01:18:24.876Z,80.03
2018-07-28T01:20:55.845Z,79.67
2018-07-28T01:23:26.698Z,79.59
2018-07-28T01:25:57.589Z,79.87
2018-07-28T01:28:29.930Z,79.87
2018-07-28T01:30:59.964Z,79.62
2018-07-28T01:33:30.739Z,80.12
2018-07-28T01:36:02.681Z,79.82
2018-07-28T01:38:32.847Z,79.91
2018-07-28T01:41:03.742Z,79.37
2018-07-28T01:43:34.610Z,79.85
2018-07-28T01:46:05.629Z,80.23
2018-07-28T01:48:36.945Z,79.70
2018-07-28T01:51:07.872Z,79.62
2018-07-28T01:53:38.687Z,79.51
2018-07-28T01:56:09.758Z,79.20
2018-07-28T01:58:40.733Z,79.98
2018-07-28T02:01:11.616Z,79.65
2018-07-28T02:03:42.867Z,80.57
2018-07-28T02:06:13.751Z,80.46
2018-07-28T02:08:44.679Z,81.16
2018-07-28T02:11:15.617Z,81.17
2018-07-28T02:13:46.602Z,81.50
2018-07-28T02:16:19.064Z,81.47
2018-07-28T02:18:48.918Z,81.57
2018-07-28T02:21:19.803Z,81.66
2018-07-28T02:23:50.648Z,81.77
2018-07-28T02:26:21.709Z,81.15
2018-07-28T02:28:53.686Z,81.13
2018-07-28T02:31:23.840Z,80.92
2018-07-28T02:33:53.778Z,81.17
2018-07-28T02:36:24.661Z,81.42
2018-07-28T02:38:56.522Z,81.41
2018-07-28T02:41:26.490Z,81.11
2018-07-28T02:43:57.952Z,81.28
2018-07-28T02:46:28.805Z,80.77
2018-07-28T02:48:59.631Z,81.04
2018-07-28T02:51:31.051Z,80.60
2018-07-28T02:54:01.742Z,80.46
2018-07-28T02:56:32.626Z,80.62
2018-07-28T02:59:04.540Z,80.96
2018-07-28T03:01:35.059Z,80.62
2018-07-28T03:04:05.881Z,80.78
2018-07-28T03:06:37.639Z,81.25
2018-07-28T03:09:12.039Z,80.78
2018-07-28T03:11:42.532Z,81.06
2018-07-28T03:14:12.328Z,80.87
2018-07-28T03:16:42.656Z,80.72
2018-07-28T03:19:12.514Z,81.05
2018-07-28T03:21:42.585Z,80.81
2018-07-28T03:24:12.478Z,80.58
2018-07-28T03:26:43.893Z,80.45
2018-07-28T03:29:14.644Z,80.36
2018-07-28T03:31:46.328Z,80.29
2018-07-28T03:34:16.851Z,80.70
2018-07-28T03:36:47.689Z,80.73
2018-07-28T03:39:19.981Z,80.45
2018-07-28T03:41:49.857Z,81.04
2018-07-28T03:44:20.740Z,80.69
2018-07-28T03:46:51.606Z,80.45
2018-07-28T03:49:22.907Z,80.85
2018-07-28T03:51:54.191Z,81.38
2018-07-28T03:54:24.982Z,80.61
2018-07-28T03:56:55.863Z,80.56
2018-07-28T03:59:26.675Z,80.65
2018-07-28T04:01:57.615Z,81.52
2018-07-28T04:04:29.507Z,80.97
2018-07-28T04:07:00.033Z,81.28
2018-07-28T04:09:30.723Z,81.10
2018-07-28T04:12:03.137Z,81.39
2018-07-28T04:14:32.945Z,81.41
2018-07-28T04:17:03.910Z,81.31
2018-07-28T04:19:34.701Z,81.66
2018-07-28T04:22:05.706Z,81.67
2018-07-28T04:24:36.612Z,82.11
2018-07-28T04:27:07.586Z,82.05
2018-07-28T04:29:38.890Z,81.80
2018-07-28T04:32:10.215Z,82.23
2018-07-28T04:34:40.850Z,82.32
2018-07-28T04:37:11.792Z,82.55
2018-07-28T04:39:42.785Z,81.55
2018-07-28T04:42:13.689Z,82.30
2018-07-28T04:44:44.513Z,81.98
2018-07-28T04:47:16.096Z,81.92
2018-07-28T04:49:47.283Z,82.17
2018-07-28T04:52:17.880Z,82.13
2018-07-28T04:54:48.713Z,82.13
2018-07-28T04:57:18.615Z,81.82
2018-07-28T04:59:49.554Z,81.92
2018-07-28T05:02:20.939Z,81.99
2018-07-28T05:04:51.777Z,81.37
2018-07-28T05:07:22.737Z,81.65
2018-07-28T05:09:54.054Z,84.33
2018-07-28T05:12:25.313Z,84.29
2018-07-28T05:14:55.899Z,84.89
2018-07-28T05:17:26.820Z,83.64
2018-07-28T05:19:57.719Z,83.09
2018-07-28T05:22:28.742Z,82.85
2018-07-28T05:24:58.657Z,83.52
2018-07-28T05:27:30.597Z,83.45
2018-07-28T05:30:00.517Z,83.47
2018-07-28T05:32:31.905Z,83.58
2018-07-28T05:35:02.764Z,83.78
2018-07-28T05:37:33.678Z,83.18
2018-07-28T05:40:04.771Z,83.04
2018-07-28T05:42:35.822Z,83.50
2018-07-28T05:45:07.348Z,84.49
2018-07-28T05:47:37.869Z,83.64
2018-07-28T05:50:09.881Z,83.72
2018-07-28T05:52:40.026Z,84.71
2018-07-28T05:55:10.872Z,84.73
2018-07-28T05:57:41.746Z,84.23
2018-07-28T06:00:12.795Z,84.39
2018-07-28T06:02:43.899Z,85.53
2018-07-28T06:05:15.000Z,84.81
2018-07-28T06:07:45.979Z,84.60
2018-07-28T06:10:16.947Z,84.47
2018-07-28T06:12:47.917Z,84.32
2018-07-28T06:15:18.760Z,84.98
2018-07-28T06:17:48.674Z,84.05
2018-07-28T06:20:19.615Z,84.87
2018-07-28T06:22:50.976Z,84.53
2018-07-28T06:25:21.852Z,83.95
2018-07-28T06:27:52.754Z,85.26
2018-07-28T06:30:23.838Z,84.34
2018-07-28T06:32:54.826Z,83.99
2018-07-28T06:35:25.738Z,83.81
2018-07-28T06:37:56.687Z,83.82
2018-07-28T06:40:27.669Z,84.13
2018-07-28T06:42:58.636Z,83.33
2018-07-28T06:45:28.474Z,83.06
2018-07-28T06:47:59.946Z,82.66
2018-07-28T06:50:30.813Z,81.92
2018-07-28T06:53:02.130Z,81.80
2018-07-28T06:55:32.882Z,81.97
2018-07-28T06:58:03.798Z,81.67
2018-07-28T07:00:34.808Z,81.57
2018-07-28T07:03:05.818Z,81.54
2018-07-28T07:05:36.653Z,81.04
2018-07-28T07:08:07.633Z,80.87
2018-07-28T07:10:38.583Z,80.59
2018-07-28T07:13:09.715Z,80.83
2018-07-28T07:15:40.551Z,80.22
2018-07-28T07:18:12.144Z,79.53
2018-07-28T07:20:42.841Z,79.12
2018-07-28T07:23:14.034Z,79.07
2018-07-28T07:25:44.746Z,78.87
2018-07-28T07:28:15.976Z,77.14
2018-07-28T07:30:46.845Z,77.77
2018-07-28T07:33:17.937Z,77.98
2018-07-28T07:35:48.724Z,77.05
2018-07-28T07:38:19.722Z,76.03
2018-07-28T07:40:50.643Z,75.30
2018-07-28T07:43:22.578Z,74.69
2018-07-28T07:45:52.966Z,74.84
2018-07-28T07:48:23.865Z,74.64
2018-07-28T07:50:54.700Z,74.88
2018-07-28T07:53:25.683Z,72.21
2018-07-28T07:55:56.564Z,71.91
2018-07-28T07:58:28.077Z,71.60
2018-07-28T08:00:58.780Z,71.31
2018-07-28T08:03:29.675Z,71.36
2018-07-28T08:06:00.590Z,72.53
2018-07-28T08:08:31.940Z,69.77
2018-07-28T08:11:03.083Z,70.17
2018-07-28T08:13:33.861Z,70.35
2018-07-28T08:16:04.733Z,69.31
2018-07-28T08:18:35.713Z,68.11
2018-07-28T08:21:06.748Z,68.13
2018-07-28T08:23:38.306Z,68.61
2018-07-28T08:26:08.918Z,67.16
2018-07-28T08:28:40.066Z,67.98
2018-07-28T08:31:10.702Z,67.67
2018-07-28T08:33:41.615Z,67.01
2018-07-28T08:36:12.591Z,65.73
2018-07-28T08:38:44.311Z,65.21
2018-07-28T08:41:14.848Z,64.17
2018-07-28T08:43:45.964Z,64.64
2018-07-28T08:46:17.108Z,64.91
2018-07-28T08:48:48.218Z,63.64
2018-07-28T08:51:18.809Z,63.20
2018-07-28T08:53:49.673Z,63.31
2018-07-28T08:56:20.617Z,62.83
2018-07-28T08:58:53.634Z,61.81
2018-07-28T09:01:23.609Z,62.03
2018-07-28T09:03:53.696Z,60.97
2018-07-28T09:06:24.773Z,61.38
2018-07-28T09:08:55.709Z,60.71
2018-07-28T09:11:26.571Z,60.04
2018-07-28T09:13:57.941Z,60.17
2018-07-28T09:16:28.816Z,60.06
2018-07-28T09:18:59.873Z,59.70
2018-07-28T09:21:31.080Z,58.81
2018-07-28T09:24:01.954Z,58.33
2018-07-28T09:26:32.774Z,56.67
2018-07-28T09:29:03.709Z,57.49
2018-07-28T09:31:34.431Z,57.03
2018-07-28T09:34:04.952Z,56.99
2018-07-28T09:36:36.192Z,56.01
2018-07-28T09:39:10.113Z,56.58
2018-07-28T09:41:39.981Z,55.21
2018-07-28T09:44:09.838Z,55.07
2018-07-28T09:46:39.710Z,54.45
2018-07-28T09:49:10.743Z,54.93
2018-07-28T09:51:41.602Z,54.62
2018-07-28T09:54:23.373Z,54.20
2018-07-28T09:56:53.140Z,53.89
2018-07-28T09:59:24.798Z,52.98
2018-07-28T10:01:54.712Z,53.18
2018-07-28T10:04:24.670Z,52.33
2018-07-28T10:06:54.596Z,52.24
2018-07-28T10:09:24.501Z,51.26
2018-07-28T10:11:54.351Z,50.93
2018-07-28T10:14:24.333Z,49.69
2018-07-28T10:16:54.261Z,50.93
2018-07-28T10:19:24.685Z,50.96
2018-07-28T10:21:54.499Z,49.72
2018-07-28T10:24:25.336Z,48.98
2018-07-28T10:26:55.304Z,48.68
2018-07-28T10:29:25.227Z,48.64
2018-07-28T10:31:55.148Z,48.29
2018-07-28T10:34:25.805Z,47.77
2018-07-28T10:36:56.732Z,47.27
2018-07-28T10:39:27.538Z,46.41
2018-07-28T10:41:59.601Z,46.60
2018-07-28T10:44:32.168Z,45.96
2018-07-28T10:47:02.476Z,45.45
2018-07-28T10:49:32.431Z,45.76
2018-07-28T10:52:20.903Z,45.96
2018-07-28T10:54:51.669Z,45.78
2018-07-28T10:57:24.286Z,45.19
2018-07-28T10:59:55.332Z,45.54
2018-07-28T11:02:25.384Z,45.41
2018-07-28T11:04:55.226Z,45.88
2018-07-28T11:07:25.108Z,45.53
2018-07-28T11:09:55.358Z,45.31
2018-07-28T11:12:25.706Z,44.55
2018-07-28T11:14:55.857Z,43.91
2018-07-28T11:17:26.362Z,43.10
2018-07-28T11:19:56.581Z,43.53
2018-07-28T11:22:26.459Z,42.77
2018-07-28T11:24:56.564Z,42.53
2018-07-28T11:27:26.409Z,40.81
2018-07-28T11:29:56.928Z,41.33
2018-07-28T11:32:37.244Z,40.59
2018-07-28T11:48:16.481Z,40.53
2018-07-28T11:50:46.334Z,39.63
2018-07-28T11:53:16.261Z,40.34
2018-07-28T11:55:46.164Z,39.71
2018-07-28T11:58:16.562Z,39.91
2018-07-28T12:00:46.788Z,39.89
2018-07-28T12:03:16.952Z,39.54
2018-07-28T12:05:46.818Z,39.02
2018-07-28T12:08:16.898Z,39.39
2018-07-28T12:10:46.844Z,39.18
2018-07-28T12:13:16.902Z,39.84
2018-07-28T12:15:46.769Z,40.87
2018-07-28T12:18:16.916Z,40.66
2018-07-28T12:20:46.970Z,40.47
2018-07-28T12:23:16.792Z,40.37
2018-07-28T12:25:46.911Z,39.71
2018-07-28T12:28:16.830Z,39.00
2018-07-28T12:30:47.453Z,39.11
2018-07-28T12:33:17.289Z,39.29
2018-07-28T12:35:47.097Z,38.61
2018-07-28T12:38:16.980Z,38.19
2018-07-28T12:40:46.834Z,38.40
2018-07-28T12:43:16.941Z,37.43
2018-07-28T12:45:46.801Z,37.67
2018-07-28T12:48:16.897Z,37.76
2018-07-28T12:50:46.805Z,37.35
2018-07-28T12:53:16.878Z,37.19
2018-07-28T12:55:46.837Z,36.42
2018-07-28T12:58:17.740Z,35.17
2018-07-28T13:00:47.913Z,35.37
2018-07-28T13:03:17.869Z,35.26
2018-07-28T13:05:47.790Z,35.02
2018-07-28T13:08:17.802Z,33.47
2018-07-28T13:10:47.788Z,34.53
2018-07-28T13:13:17.820Z,34.48
2018-07-28T13:15:47.800Z,34.04
2018-07-28T13:18:17.821Z,34.24
2018-07-28T13:20:47.890Z,32.92
2018-07-28T13:23:18.092Z,32.49
2018-07-28T13:25:48.160Z,31.99
2018-07-28T13:28:17.998Z,32.79
2018-07-28T13:30:47.989Z,32.24
2018-07-28T13:33:17.933Z,32.71
2018-07-28T13:35:48.338Z,32.97
2018-07-28T13:38:18.269Z,33.16
2018-07-28T13:40:48.279Z,32.92
2018-07-28T13:43:18.264Z,32.92
2018-07-28T13:45:48.373Z,32.31
2018-07-28T13:48:18.216Z,32.31
2018-07-28T13:50:48.549Z,32.70
2018-07-28T13:53:18.986Z,32.82
2018-07-28T13:55:48.802Z,32.12
2018-07-28T13:58:19.613Z,30.96
2018-07-28T14:00:49.488Z,31.83
2018-07-28T14:03:19.440Z,31.04
2018-07-28T14:05:49.315Z,30.83
2018-07-28T14:08:19.823Z,31.08
2018-07-28T14:10:50.574Z,31.12
2018-07-28T14:13:21.563Z,31.96
2018-07-28T14:15:52.685Z,32.12
2018-07-28T14:18:23.746Z,32.56
2018-07-28T14:20:54.898Z,32.87
2018-07-28T14:23:25.890Z,32.03
2018-07-28T14:25:56.965Z,32.18
2018-07-28T14:28:28.638Z,32.82
2018-07-28T14:30:58.677Z,33.46
2018-07-28T14:33:29.558Z,34.04
2018-07-28T14:36:00.580Z,34.01
2018-07-28T14:38:31.593Z,33.66
2018-07-28T14:41:04.181Z,32.98
2018-07-28T14:43:34.172Z,32.98
2018-07-28T14:46:04.871Z,32.21
2018-07-28T14:48:35.904Z,32.75
2018-07-28T14:51:06.838Z,32.32
2018-07-28T14:53:37.814Z,31.30
2018-07-28T14:56:08.652Z,31.34
2018-07-28T14:58:39.954Z,31.46
2018-07-28T15:01:10.705Z,31.26
2018-07-28T15:03:41.565Z,31.70
2018-07-28T15:06:12.561Z,31.67
2018-07-28T15:08:43.550Z,31.87
2018-07-28T15:11:15.485Z,31.54
2018-07-28T15:13:45.477Z,32.74
2018-07-28T15:16:17.510Z,33.00
2018-07-28T15:18:49.019Z,33.42
2018-07-28T15:21:18.861Z,33.22
2018-07-28T15:23:50.710Z,33.61
2018-07-28T15:26:20.552Z,33.41
2018-07-28T15:28:53.118Z,33.93
2018-07-28T15:31:23.673Z,34.25
2018-07-28T15:33:53.524Z,34.41
2018-07-28T15:36:24.023Z,35.43
2018-07-28T15:38:54.756Z,35.31
2018-07-28T15:41:25.610Z,36.33
2018-07-28T15:43:56.629Z,36.95
2018-07-28T15:46:27.869Z,37.69
2018-07-28T15:48:57.822Z,38.10
2018-07-28T15:51:28.589Z,38.29
2018-07-28T15:53:59.706Z,39.12
2018-07-28T15:56:30.605Z,39.86
2018-07-28T15:59:01.940Z,39.25
2018-07-28T16:01:32.746Z,39.96
2018-07-28T16:04:03.590Z,40.42
2018-07-28T16:06:34.594Z,40.39
2018-07-28T16:09:08.693Z,41.19
2018-07-28T16:11:38.535Z,42.46
2018-07-28T16:14:08.491Z,42.13
2018-07-28T16:16:38.902Z,42.37
2018-07-28T16:19:09.696Z,42.63
2018-07-28T16:21:41.164Z,44.50
2018-07-28T16:24:11.852Z,45.49
2018-07-28T16:26:42.712Z,45.33
2018-07-28T16:29:13.680Z,45.23
2018-07-28T16:31:45.253Z,43.46
2018-07-28T16:34:15.991Z,42.57
2018-07-28T16:36:46.885Z,42.69
2018-07-28T16:39:17.757Z,42.23
2018-07-28T16:41:48.626Z,41.53
2018-07-28T16:44:19.558Z,41.77
2018-07-28T16:46:50.594Z,40.51
2018-07-28T16:49:21.545Z,41.28
2018-07-28T16:51:52.573Z,41.67
2018-07-28T16:54:23.937Z,40.77
2018-07-28T16:56:55.667Z,41.49
2018-07-28T16:59:25.577Z,40.91
2018-07-28T17:01:56.488Z,40.97
2018-07-28T17:04:28.080Z,40.35
2018-07-28T17:06:58.727Z,40.54
2018-07-28T17:09:30.157Z,39.92
2018-07-28T17:11:59.989Z,40.57
2018-07-28T17:14:30.882Z,40.71
2018-07-28T17:17:01.665Z,40.95
2018-07-28T17:19:32.678Z,41.07
2018-07-28T17:22:03.549Z,41.69
2018-07-28T17:24:34.952Z,41.40
2018-07-28T17:27:05.774Z,41.88
2018-07-28T17:29:36.675Z,42.26
2018-07-28T17:32:08.610Z,42.41
2018-07-28T17:34:38.605Z,42.45
2018-07-28T17:37:09.901Z,42.56
2018-07-28T17:39:40.759Z,42.88
2018-07-28T17:42:11.665Z,42.74
2018-07-28T17:44:42.713Z,42.41
2018-07-28T17:47:13.941Z,42.77
2018-07-28T17:49:44.736Z,43.39
2018-07-28T17:52:15.648Z,43.87
2018-07-28T17:54:46.548Z,44.41
2018-07-28T17:57:18.854Z,44.79
2018-07-28T17:59:48.913Z,45.43
2018-07-28T18:02:19.770Z,45.57
2018-07-28T18:04:50.635Z,46.39
2018-07-28T18:07:22.165Z,47.03
2018-07-28T18:09:52.951Z,47.20
2018-07-28T18:12:23.773Z,48.27
2018-07-28T18:14:54.600Z,48.16
2018-07-28T18:17:25.461Z,49.24
2018-07-28T18:19:56.893Z,49.19
2018-07-28T18:22:27.728Z,49.37
2018-07-28T18:25:06.552Z,50.40
2018-07-28T18:27:36.345Z,50.36
2018-07-28T18:30:06.500Z,50.47
2018-07-28T18:32:36.287Z,50.51
2018-07-28T18:35:06.977Z,50.79
2018-07-28T18:37:37.716Z,51.35
2018-07-28T18:40:07.935Z,51.27
2018-07-28T18:42:37.824Z,51.84
2018-07-28T18:45:07.925Z,51.42
2018-07-28T18:47:37.945Z,52.28
2018-07-28T18:50:08.848Z,53.06
2018-07-28T18:52:39.734Z,53.35
2018-07-28T18:55:11.132Z,53.50
2018-07-28T18:57:41.960Z,53.64
2018-07-28T19:00:13.276Z,54.02
2018-07-28T19:02:44.972Z,54.76
2018-07-28T19:05:14.973Z,54.71
2018-07-28T19:07:45.929Z,55.32
2018-07-28T19:10:18.055Z,55.50
2018-07-28T19:12:52.993Z,55.90
2018-07-28T19:15:22.886Z,56.09
2018-07-28T19:18:57.266Z,56.39
2018-07-28T19:21:27.271Z,56.78
2018-07-28T19:24:01.424Z,57.10
2018-07-28T19:26:32.035Z,57.33
2018-07-28T19:29:06.958Z,57.52
2018-07-28T19:31:37.130Z,58.14
2018-07-28T19:34:07.084Z,57.78
2018-07-28T19:36:42.161Z,58.19
2018-07-28T19:39:13.183Z,58.59
2018-07-28T19:41:47.949Z,58.74
2018-07-28T19:44:18.137Z,59.76
2018-07-28T19:46:48.125Z,59.55
2018-07-28T19:49:18.354Z,59.83
2018-07-28T19:51:48.281Z,60.03
2018-07-28T19:54:18.196Z,60.36
2018-07-28T19:56:48.379Z,60.68
2018-07-28T19:59:18.405Z,60.25
2018-07-28T20:01:48.481Z,61.29
2018-07-28T20:04:18.472Z,61.53
2018-07-28T20:06:48.504Z,61.87
2018-07-28T20:09:18.974Z,61.78
2018-07-28T20:11:49.003Z,62.00
2018-07-28T20:14:18.864Z,62.08
2018-07-28T20:16:49.062Z,62.62
2018-07-28T20:19:18.984Z,62.47
2018-07-28T20:21:49.401Z,62.19
2018-07-28T20:24:19.238Z,62.68
2018-07-28T20:26:49.134Z,62.72
2018-07-28T20:29:19.149Z,62.53
2018-07-28T20:31:49.112Z,63.15
2018-07-28T20:34:19.085Z,63.01
2018-07-28T20:36:49.032Z,63.51
2018-07-28T20:39:18.979Z,63.15
2018-07-28T20:41:49.001Z,63.85
2018-07-28T20:44:19.061Z,63.83
2018-07-28T20:46:48.975Z,64.52
2018-07-28T20:49:18.898Z,64.80
2018-07-28T20:51:48.867Z,65.35
2018-07-28T20:54:19.010Z,64.96
2018-07-28T20:56:48.873Z,65.01
2018-07-28T20:59:18.925Z,65.31
2018-07-28T21:01:49.054Z,65.53
2018-07-28T21:04:19.078Z,66.04
2018-07-28T21:06:49.113Z,66.38
2018-07-28T21:09:19.042Z,65.84
2018-07-28T21:11:49.183Z,65.61
2018-07-28T21:14:19.227Z,65.94
2018-07-28T21:16:49.313Z,65.82
2018-07-28T21:19:19.104Z,65.49
2018-07-28T21:21:49.004Z,65.88
2018-07-28T21:24:19.207Z,65.78
2018-07-28T21:26:49.219Z,65.69
2018-07-28T21:29:19.323Z,65.96
2018-07-28T21:31:49.101Z,65.86
2018-07-28T21:34:19.333Z,65.96
2018-07-28T21:36:49.211Z,66.03
2018-07-28T21:39:19.706Z,66.43
2018-07-28T21:41:49.981Z,65.98
2018-07-28T21:44:20.284Z,66.64
2018-07-28T21:46:50.120Z,66.74
2018-07-28T21:49:20.142Z,66.30
2018-07-28T21:51:50.109Z,66.68
2018-07-28T21:54:20.152Z,66.72
2018-07-28T21:56:50.027Z,67.00
2018-07-28T21:59:20.070Z,66.76
2018-07-28T22:01:50.027Z,67.13
2018-07-28T22:04:25.187Z,67.00
2018-07-28T22:06:55.201Z,67.29
2018-07-28T22:09:25.407Z,66.90
2018-07-28T22:11:55.483Z,67.23
2018-07-28T22:14:25.527Z,67.94
2018-07-28T22:16:55.825Z,68.05
2018-07-28T22:19:25.955Z,67.49
2018-07-28T22:21:55.950Z,68.22
2018-07-28T22:24:25.997Z,68.38
2018-07-28T22:26:55.856Z,68.44
2018-07-28T22:29:25.891Z,68.40
2018-07-28T22:31:55.812Z,68.10
2018-07-28T22:34:25.905Z,68.41
2018-07-28T22:36:55.985Z,68.93
2018-07-28T22:39:25.960Z,68.63
2018-07-28T22:41:55.800Z,68.79
2018-07-28T22:44:25.913Z,68.73
2018-07-28T22:46:56.055Z,69.11
2018-07-28T22:49:27.020Z,69.32
2018-07-28T22:51:57.297Z,69.29
2018-07-28T22:54:27.748Z,69.71
2018-07-28T22:56:57.846Z,69.82
2018-07-28T22:59:28.026Z,69.08
2018-07-28T23:01:57.960Z,69.63
2018-07-28T23:04:27.840Z,69.84
2018-07-28T23:06:58.235Z,70.19
2018-07-28T23:09:28.642Z,69.55
2018-07-28T23:11:58.571Z,70.21
2018-07-28T23:14:28.907Z,70.21
2018-07-28T23:16:58.767Z,70.59
2018-07-28T23:19:28.665Z,71.15
2018-07-28T23:21:58.507Z,71.64
2018-07-28T23:24:28.467Z,71.78
2018-07-28T23:26:58.416Z,71.75
2018-07-28T23:29:28.458Z,72.28
2018-07-28T23:31:58.368Z,73.03
2018-07-28T23:34:29.325Z,72.81
2018-07-28T23:37:00.042Z,72.89
2018-07-28T23:39:33.472Z,73.01
2018-07-28T23:42:03.849Z,73.24
2018-07-28T23:44:33.796Z,72.71
2018-07-28T23:47:03.720Z,73.58
2018-07-28T23:49:34.760Z,73.53
2018-07-28T23:52:05.737Z,73.50
2018-07-28T23:54:36.714Z,76.93
2018-07-28T23:57:07.768Z,75.10
2018-07-28T23:59:38.769Z,74.68
